KCUH/CUH METAR and TAF weather

Enter ICAO airport designator
Station Type Date Time Source
KCUH METAR 2019/08/24 19:55 UTC NOAA

KCUH 241955Z AUTO 13005KT 10SM BKN017 OVC025 27/23 A2994 RMK AO2 T02720232


Station Type Date Time Source
KCUH Decoded METAR 2019/08/24 19:55 UTC NOAA

Station name not available
Aug 24, 2019 - 03:55 PM EDT / 2019.08.24 1955 UTC
Wind: from the SE (130 degrees) at 6 MPH (5 KT):0
Visibility: 10 mile(s):0
Sky conditions: overcast
Temperature: 81.0 F (27.2 C)
Dew Point: 73.8 F (23.2 C)
Relative Humidity: 78%
Pressure (altimeter): 29.94 in. Hg (1013 hPa)
ob: KCUH 241955Z AUTO 13005KT 10SM BKN017 OVC025 27/23 A2994 RMK AO2 T02720232
cycle: 20

Station Type Date Time Source
KCUH TAF UTC NOAA

Error!

Example: see airport list